Time;durP1;ratioP1;P1;durP2;ratioP2;P2;SDS_P1;SDS_P2;PMS_P1;PMS_P2;Temp;Humidity;BMP_temperature;BMP_pressure;BME280_temperature;BME280_humidity;BME280_pressure;Samples;Min_cycle;Max_cycle;Signal;HPM_P1;HPM_P2
2021/10/21 00:00:07;;;;;;;5.17;3.63;;;15.20;99.90;;;;;;4995541;28;20215;-63
2021/10/21 00:02:37;;;;;;;6.00;3.47;;;15.20;99.90;;;;;;4996005;28;20212;-63
2021/10/21 00:05:05;;;;;;;4.63;3.40;;;15.20;99.90;;;;;;4995315;28;20270;-63
2021/10/21 00:07:31;;;;;;;5.43;3.13;;;15.10;99.90;;;;;;4995830;28;20211;-62
2021/10/21 00:10:01;;;;;;;5.33;3.20;;;15.10;99.90;;;;;;4995532;28;20215;-63
2021/10/21 00:12:28;;;;;;;4.50;3.17;;;15.10;99.90;;;;;;4995520;28;20228;-63
2021/10/21 00:14:55;;;;;;;6.10;3.23;;;15.10;99.90;;;;;;4994997;28;20624;-63
2021/10/21 00:17:21;;;;;;;6.23;3.20;;;15.10;99.90;;;;;;4995424;28;20215;-63
2021/10/21 00:19:49;;;;;;;4.93;3.00;;;15.20;99.90;;;;;;4995115;28;20266;-62
2021/10/21 00:22:18;;;;;;;4.00;2.50;;;15.30;99.90;;;;;;4994910;28;20203;-61
2021/10/21 00:24:45;;;;;;;5.17;3.27;;;15.30;99.90;;;;;;4995057;28;20203;-63
2021/10/21 00:27:11;;;;;;;5.93;3.20;;;15.40;99.90;;;;;;4995060;28;20668;-62
2021/10/21 00:29:38;;;;;;;4.40;3.07;;;15.40;99.90;;;;;;4995407;28;20618;-63
2021/10/21 00:32:05;;;;;;;4.70;2.97;;;15.20;1.00;;;;;;4994910;28;20634;-63
2021/10/21 00:34:32;;;;;;;5.93;3.27;;;15.10;99.90;;;;;;4994987;28;20211;-61
2021/10/21 00:37:00;;;;;;;9.57;3.40;;;14.90;99.90;;;;;;4995027;28;20207;-63
2021/10/21 00:39:26;;;;;;;4.57;3.40;;;14.80;99.90;;;;;;4994965;28;20269;-63
2021/10/21 00:41:53;;;;;;;6.60;3.57;;;14.60;99.90;;;;;;4994951;28;20645;-63
2021/10/21 00:44:21;;;;;;;8.17;3.37;;;14.50;99.90;;;;;;4994741;28;20274;-62
2021/10/21 00:46:48;;;;;;;7.73;4.33;;;14.50;1.00;;;;;;4994375;28;20269;-62
2021/10/21 00:49:15;;;;;;;8.73;4.33;;;14.40;99.90;;;;;;4994863;28;20258;-63
2021/10/21 00:51:42;;;;;;;5.67;3.97;;;14.40;1.00;;;;;;4994809;28;20231;-63
2021/10/21 00:54:11;;;;;;;9.20;4.17;;;14.30;99.90;;;;;;4994907;28;20261;-63
2021/10/21 00:56:38;;;;;;;5.73;3.83;;;14.20;99.90;;;;;;4994578;28;20258;-62
2021/10/21 00:59:05;;;;;;;8.70;3.97;;;14.20;99.90;;;;;;4994347;28;20258;-62
2021/10/21 01:01:34;;;;;;;6.50;3.90;;;14.20;99.90;;;;;;4994465;28;20235;-63
2021/10/21 01:04:01;;;;;;;6.63;4.00;;;14.20;99.90;;;;;;4994714;28;20208;-63
2021/10/21 01:06:28;;;;;;;6.23;4.17;;;14.20;99.90;;;;;;4994289;28;20258;-63
2021/10/21 01:08:55;;;;;;;5.47;3.70;;;14.20;99.90;;;;;;4994689;28;20208;-63
2021/10/21 01:11:23;;;;;;;4.77;3.57;;;14.20;99.90;;;;;;4994232;28;20278;-63
2021/10/21 01:13:50;;;;;;;6.37;3.73;;;14.20;99.90;;;;;;4994250;28;20211;-63
2021/10/21 01:16:17;;;;;;;8.93;3.10;;;14.20;1.00;;;;;;4993786;28;20701;-62
2021/10/21 01:18:44;;;;;;;5.07;2.93;;;14.20;99.90;;;;;;4994442;28;20207;-62
2021/10/21 01:21:13;;;;;;;4.77;2.97;;;14.20;99.90;;;;;;4994084;28;20294;-63
2021/10/21 01:23:41;;;;;;;6.10;2.60;;;14.20;99.90;;;;;;4994157;28;20299;-62
2021/10/21 01:26:09;;;;;;;3.60;2.50;;;14.30;99.90;;;;;;4993763;28;20676;-63
2021/10/21 01:28:37;;;;;;;5.53;2.37;;;14.30;1.00;;;;;;4994141;28;20291;-63
2021/10/21 01:31:03;;;;;;;3.33;2.30;;;14.30;1.00;;;;;;4993956;28;20367;-60
2021/10/21 01:33:30;;;;;;;3.43;2.60;;;14.30;1.00;;;;;;4993107;28;20254;-62
2021/10/21 01:35:57;;;;;;;3.77;2.27;;;14.40;99.90;;;;;;4993647;28;20208;-63
2021/10/21 01:38:25;;;;;;;6.27;2.53;;;14.40;1.00;;;;;;4993560;28;20278;-63
2021/10/21 01:40:52;;;;;;;4.70;2.47;;;14.40;1.00;;;;;;4993588;28;20591;-61
2021/10/21 01:43:19;;;;;;;3.90;2.40;;;14.30;99.90;;;;;;4993729;28;20385;-63
2021/10/21 01:45:46;;;;;;;5.40;2.20;;;14.30;99.90;;;;;;4993698;28;20266;-62
2021/10/21 01:48:13;;;;;;;4.43;1.60;;;14.30;1.00;;;;;;4993881;28;20207;-63
2021/10/21 01:50:40;;;;;;;5.47;1.80;;;14.30;1.00;;;;;;4993312;28;20746;-62
2021/10/21 01:53:06;;;;;;;3.57;2.20;;;14.30;99.90;;;;;;4993513;28;20228;-61
2021/10/21 01:55:34;;;;;;;3.93;2.20;;;14.20;99.90;;;;;;4993169;28;20203;-63
2021/10/21 01:58:01;;;;;;;1.90;1.60;;;14.20;1.00;;;;;;4993799;28;20263;-62
2021/10/21 02:00:28;;;;;;;3.63;1.50;;;14.20;99.90;;;;;;4993185;28;20301;-61
2021/10/21 02:02:55;;;;;;;2.97;1.13;;;14.10;1.00;;;;;;4993323;28;20611;-62
2021/10/21 02:05:22;;;;;;;1.80;0.90;;;14.10;99.90;;;;;;4992972;28;20215;-63
2021/10/21 02:07:49;;;;;;;5.47;1.17;;;14.00;99.90;;;;;;4993185;28;20208;-62
2021/10/21 02:10:17;;;;;;;3.50;1.17;;;14.00;99.90;;;;;;4993129;28;20232;-63
2021/10/21 02:12:45;;;;;;;5.87;1.10;;;13.90;99.90;;;;;;4993194;28;20228;-63
2021/10/21 02:15:12;;;;;;;2.77;1.03;;;13.70;82.30;;;;;;4993058;28;20216;-61
2021/10/21 02:17:39;;;;;;;3.00;1.00;;;13.70;91.50;;;;;;4993297;28;20235;-62
2021/10/21 02:20:07;;;;;;;6.03;1.20;;;13.60;53.80;;;;;;4993262;28;20270;-62
2021/10/21 02:22:34;;;;;;;3.67;1.20;;;13.50;60.50;;;;;;4992958;28;20204;-61
2021/10/21 02:25:01;;;;;;;6.23;1.00;;;13.40;52.00;;;;;;4992862;28;20575;-62
2021/10/21 02:27:28;;;;;;;4.20;0.93;;;13.40;6.00;;;;;;4993232;28;20210;-63
2021/10/21 02:29:56;;;;;;;3.30;1.20;;;13.30;1.00;;;;;;4993211;28;20298;-62
2021/10/21 02:32:23;;;;;;;2.97;0.87;;;13.20;1.00;;;;;;4992901;28;20270;-62
2021/10/21 02:34:49;;;;;;;2.90;0.80;;;13.20;1.00;;;;;;4992590;28;20208;-62
2021/10/21 02:37:16;;;;;;;3.33;0.90;;;13.10;1.00;;;;;;4992959;28;20215;-63
2021/10/21 02:39:43;;;;;;;8.20;1.10;;;13.10;1.00;;;;;;4992914;28;20261;-62
2021/10/21 02:42:10;;;;;;;5.57;1.50;;;13.00;1.00;;;;;;4992668;28;20644;-61
2021/10/21 02:44:36;;;;;;;3.97;1.10;;;12.90;1.00;;;;;;4992269;28;20214;-62
2021/10/21 02:47:05;;;;;;;5.97;0.90;;;13.00;1.00;;;;;;4992763;28;20676;-62
2021/10/21 02:49:31;;;;;;;5.27;0.97;;;12.90;1.00;;;;;;4992755;28;20217;-62
2021/10/21 02:51:58;;;;;;;5.93;0.97;;;12.90;1.00;;;;;;4992619;28;20242;-61
2021/10/21 02:54:25;;;;;;;5.10;1.10;;;12.80;1.00;;;;;;4992756;28;20301;-62
2021/10/21 02:56:52;;;;;;;5.97;0.93;;;12.80;1.00;;;;;;4992192;28;20219;-62
2021/10/21 02:59:18;;;;;;;2.90;0.70;;;12.90;1.00;;;;;;4992764;28;20254;-62
2021/10/21 03:01:45;;;;;;;4.90;0.90;;;12.80;1.00;;;;;;4992504;28;20270;-63
2021/10/21 03:04:14;;;;;;;4.10;1.30;;;12.80;1.00;;;;;;4992520;28;20630;-62
2021/10/21 03:06:40;;;;;;;3.67;1.20;;;12.80;1.00;;;;;;4992247;28;20298;-63
2021/10/21 03:09:07;;;;;;;3.27;0.83;;;12.80;1.00;;;;;;4992571;28;20710;-63
2021/10/21 03:11:34;;;;;;;5.33;0.97;;;12.80;1.00;;;;;;4992509;28;20227;-63
2021/10/21 03:14:01;;;;;;;3.30;1.00;;;12.70;1.00;;;;;;4992470;28;20215;-63
2021/10/21 03:16:30;;;;;;;8.33;1.17;;;12.70;1.00;;;;;;4992111;28;20212;-62
2021/10/21 03:18:56;;;;;;;3.20;0.90;;;12.80;1.00;;;;;;4992389;28;20682;-63
2021/10/21 03:21:24;;;;;;;7.87;0.87;;;12.70;1.00;;;;;;4992683;28;20229;-62
2021/10/21 03:23:51;;;;;;;4.30;0.93;;;12.90;1.00;;;;;;4992601;28;20215;-63
2021/10/21 03:26:18;;;;;;;4.33;1.13;;;12.90;1.00;;;;;;4992264;28;20298;-62
2021/10/21 03:28:45;;;;;;;2.97;1.13;;;12.80;1.00;;;;;;4992293;28;20672;-62
2021/10/21 03:31:11;;;;;;;3.53;0.90;;;12.70;1.00;;;;;;4992067;28;20728;-62
2021/10/21 03:33:38;;;;;;;5.03;1.50;;;12.70;1.00;;;;;;4992494;28;20564;-61
2021/10/21 03:36:05;;;;;;;5.23;1.17;;;12.60;1.00;;;;;;4991641;28;20673;-63
2021/10/21 03:38:33;;;;;;;3.87;1.17;;;12.50;1.00;;;;;;4992394;28;20209;-63
2021/10/21 03:41:00;;;;;;;3.83;0.87;;;12.40;1.00;;;;;;4992093;28;20715;-63
2021/10/21 03:43:27;;;;;;;4.67;1.10;;;12.30;1.00;;;;;;4992180;28;20673;-63
2021/10/21 03:45:53;;;;;;;5.77;1.33;;;12.20;1.00;;;;;;4991827;28;20262;-63
2021/10/21 03:48:20;;;;;;;3.20;1.00;;;12.20;1.00;;;;;;4992409;28;20241;-62
2021/10/21 03:50:47;;;;;;;4.57;1.10;;;12.20;1.00;;;;;;4992051;28;20773;-63
2021/10/21 03:53:14;;;;;;;3.10;0.80;;;12.30;1.00;;;;;;4991857;28;20261;-62
2021/10/21 03:55:43;;;;;;;3.37;0.87;;;12.40;1.00;;;;;;4992095;28;20268;-62
2021/10/21 03:58:10;;;;;;;4.67;0.90;;;12.40;1.00;;;;;;4995649;28;20631;-63
2021/10/21 04:00:37;;;;;;;7.60;1.40;;;12.40;1.00;;;;;;4995327;28;20241;-61
2021/10/21 04:03:03;;;;;;;8.67;1.37;;;12.50;1.00;;;;;;4995731;28;20210;-63
2021/10/21 04:05:30;;;;;;;6.17;1.00;;;12.60;1.00;;;;;;4995328;28;20213;-62
2021/10/21 04:07:57;;;;;;;4.67;0.90;;;12.70;1.00;;;;;;4995649;28;20226;-62
2021/10/21 04:10:24;;;;;;;5.53;1.27;;;12.70;1.00;;;;;;4995402;28;20599;-62
2021/10/21 04:12:52;;;;;;;2.40;0.83;;;12.80;1.00;;;;;;4995487;28;20285;-63
2021/10/21 04:15:24;;;;;;;7.93;1.47;;;12.70;1.00;;;;;;4995161;28;20487;-63
2021/10/21 04:17:51;;;;;;;5.57;0.90;;;12.80;1.00;;;;;;4991977;28;20206;-61
2021/10/21 04:20:18;;;;;;;3.07;0.97;;;12.80;1.00;;;;;;4994807;28;20771;-62
2021/10/21 04:22:44;;;;;;;2.37;0.80;;;12.70;1.00;;;;;;4994337;28;20274;-60
2021/10/21 04:25:11;;;;;;;1.60;0.90;;;12.70;1.00;;;;;;4991053;28;20294;-63
2021/10/21 04:27:38;;;;;;;4.07;0.90;;;12.70;1.00;;;;;;4999400;28;20207;-63
2021/10/21 04:30:08;;;;;;;3.17;0.83;;;12.70;1.00;;;;;;4990340;28;20574;-63
2021/10/21 04:32:35;;;;;;;4.37;0.97;;;12.70;1.00;;;;;;4994857;28;20233;-64
2021/10/21 04:35:01;;;;;;;1.83;0.80;;;12.70;1.00;;;;;;4994081;28;20211;-63
2021/10/21 04:37:28;;;;;;;3.67;0.83;;;12.70;1.00;;;;;;4994590;28;20243;-59
2021/10/21 04:39:55;;;;;;;2.40;0.90;;;12.70;1.00;;;;;;4994858;28;20230;-60
2021/10/21 04:42:21;;;;;;;8.60;0.87;;;12.70;1.00;;;;;;4994890;28;20210;-58
2021/10/21 04:44:49;;;;;;;3.40;0.87;;;12.60;1.00;;;;;;4994077;28;20695;-59
2021/10/21 04:47:17;;;;;;;4.70;1.30;;;12.70;1.00;;;;;;4994678;28;20210;-58
2021/10/21 04:49:44;;;;;;;4.13;0.80;;;12.70;1.00;;;;;;4994757;28;20622;-61
2021/10/21 04:52:11;;;;;;;4.57;0.87;;;12.70;1.00;;;;;;4994243;28;20318;-56
2021/10/21 04:54:38;;;;;;;2.53;0.70;;;12.70;1.00;;;;;;4993671;28;20722;-62
2021/10/21 04:57:05;;;;;;;4.03;0.97;;;12.70;1.00;;;;;;4994649;28;20298;-59
2021/10/21 04:59:32;;;;;;;5.80;0.70;;;12.60;1.00;;;;;;4994103;28;20270;-57
2021/10/21 05:01:58;;;;;;;2.30;0.70;;;12.60;1.00;;;;;;4994418;28;20235;-56
2021/10/21 05:04:27;;;;;;;2.93;0.80;;;12.70;1.00;;;;;;4994157;28;20660;-58
2021/10/21 05:06:54;;;;;;;4.57;1.03;;;12.70;1.00;;;;;;4993741;28;20210;-56
2021/10/21 05:09:20;;;;;;;1.80;0.60;;;12.70;1.00;;;;;;4993800;28;20211;-59
2021/10/21 05:11:47;;;;;;;2.60;0.87;;;12.60;1.00;;;;;;4994430;28;20235;-57
2021/10/21 05:14:13;;;;;;;4.17;0.77;;;12.50;1.00;;;;;;4994266;28;20276;-60
2021/10/21 05:16:40;;;;;;;10.43;1.00;;;12.50;1.00;;;;;;4993412;28;20211;-57
2021/10/21 05:19:07;;;;;;;0.90;0.50;;;12.40;1.00;;;;;;4993596;28;20222;-61
2021/10/21 05:21:35;;;;;;;4.27;0.80;;;12.30;1.00;;;;;;4992943;28;20652;-63
2021/10/21 05:24:02;;;;;;;0.80;0.40;;;12.20;1.00;;;;;;4993925;28;20214;-63
2021/10/21 05:26:28;;;;;;;1.67;0.70;;;12.10;1.00;;;;;;4993932;28;20235;-63
2021/10/21 05:28:55;;;;;;;2.47;0.50;;;12.10;1.00;;;;;;4985162;28;20222;-64
2021/10/21 05:31:22;;;;;;;2.40;0.50;;;12.10;1.00;;;;;;4993144;28;20259;-64
2021/10/21 05:33:48;;;;;;;0.87;0.60;;;12.00;1.00;;;;;;4993447;28;20285;-61
2021/10/21 05:36:15;;;;;;;1.70;0.70;;;11.90;5.20;;;;;;4992673;28;20214;-61
2021/10/21 05:38:43;;;;;;;3.43;0.70;;;11.80;5.10;;;;;;4993238;28;20743;-63
2021/10/21 05:41:10;;;;;;;1.10;0.60;;;11.80;43.60;;;;;;4993255;28;20715;-65
2021/10/21 05:43:37;;;;;;;5.00;0.90;;;11.80;5.80;;;;;;4993336;28;20231;-63
2021/10/21 05:46:03;;;;;;;1.57;0.47;;;11.70;52.50;;;;;;4993011;28;20212;-65
2021/10/21 05:48:31;;;;;;;0.60;0.50;;;11.60;99.90;;;;;;4992819;28;20212;-66
2021/10/21 05:50:58;;;;;;;1.33;0.57;;;11.60;99.90;;;;;;4992900;28;20247;-65
2021/10/21 05:53:25;;;;;;;1.03;0.60;;;11.50;99.90;;;;;;4993040;28;20685;-65
2021/10/21 05:55:53;;;;;;;1.07;0.60;;;11.50;99.90;;;;;;4992777;28;20227;-62
2021/10/21 05:58:19;;;;;;;1.50;0.60;;;11.60;99.90;;;;;;4992829;28;20219;-62
2021/10/21 06:00:46;;;;;;;0.50;0.50;;;11.60;93.50;;;;;;4992632;28;20724;-63
2021/10/21 06:03:13;;;;;;;2.50;0.50;;;11.60;46.60;;;;;;4993043;28;20235;-65
2021/10/21 06:05:40;;;;;;;2.53;0.90;;;11.60;66.50;;;;;;4992195;28;20217;-63
2021/10/21 06:08:07;;;;;;;1.00;0.50;;;11.50;99.90;;;;;;4992764;28;20211;-64
2021/10/21 06:10:34;;;;;;;1.17;0.40;;;11.30;4.50;;;;;;4992828;28;20267;-64
2021/10/21 06:13:04;;;;;;;5.37;0.60;;;11.20;92.30;;;;;;4992646;28;20224;-66
2021/10/21 06:15:31;;;;;;;1.67;0.50;;;11.00;99.90;;;;;;4992372;28;20234;-66
2021/10/21 06:18:01;;;;;;;1.07;0.40;;;10.90;1.00;;;;;;4992341;28;20769;-66
2021/10/21 06:20:28;;;;;;;1.13;0.43;;;10.70;99.90;;;;;;4992346;28;20360;-64
2021/10/21 06:22:55;;;;;;;0.70;0.50;;;10.60;1.00;;;;;;4992765;28;20214;-65
2021/10/21 06:25:22;;;;;;;1.57;0.70;;;10.60;99.90;;;;;;4992105;28;20290;-65
2021/10/21 06:27:48;;;;;;;1.80;0.73;;;10.60;1.00;;;;;;4992486;28;20262;-65
2021/10/21 06:30:16;;;;;;;1.80;1.03;;;10.60;91.40;;;;;;4992239;28;20227;-65
2021/10/21 06:32:43;;;;;;;1.77;0.87;;;10.60;99.90;;;;;;4992306;28;20257;-66
2021/10/21 06:35:14;;;;;;;2.37;1.30;;;10.60;82.20;;;;;;4992103;28;20208;-66
2021/10/21 06:37:41;;;;;;;2.97;1.70;;;10.60;99.90;;;;;;4991933;28;20214;-67
2021/10/21 06:40:09;;;;;;;5.47;3.10;;;10.60;99.90;;;;;;4992482;28;20255;-64
2021/10/21 06:42:35;;;;;;;4.00;3.00;;;10.50;99.90;;;;;;4992185;28;20207;-65
2021/10/21 06:45:03;;;;;;;5.73;3.50;;;10.50;1.00;;;;;;4991751;28;20207;-66
2021/10/21 06:47:33;;;;;;;5.87;3.27;;;10.60;1.00;;;;;;4992129;28;20679;-64
2021/10/21 06:50:00;;;;;;;2.60;2.27;;;10.50;13.00;;;;;;4992453;28;20208;-65
2021/10/21 06:52:26;;;;;;;5.03;3.07;;;10.50;1.00;;;;;;4992157;28;20212;-65
2021/10/21 06:54:53;;;;;;;2.73;2.47;;;10.60;84.90;;;;;;4992000;28;20208;-66
2021/10/21 06:57:20;;;;;;;6.87;3.33;;;10.50;99.90;;;;;;4992161;28;20215;-66
2021/10/21 06:59:46;;;;;;;4.87;3.87;;;10.50;99.90;;;;;;4991814;28;20219;-63
2021/10/21 07:02:14;;;;;;;6.47;3.47;;;10.50;99.90;;;;;;4992353;28;20227;-62
2021/10/21 07:04:41;;;;;;;3.50;2.07;;;10.30;99.90;;;;;;4991822;28;20209;-59
2021/10/21 07:07:08;;;;;;;2.87;1.60;;;10.30;99.90;;;;;;4992209;28;20217;-53
2021/10/21 07:09:35;;;;;;;2.00;1.23;;;10.20;1.00;;;;;;4991901;28;20203;-60
2021/10/21 07:12:02;;;;;;;4.10;0.90;;;10.20;1.00;;;;;;4991798;28;20234;-59
2021/10/21 07:14:29;;;;;;;2.57;0.80;;;10.00;99.90;;;;;;4991901;28;20238;-58
2021/10/21 07:16:56;;;;;;;1.57;0.63;;;9.80;99.90;;;;;;4991890;28;20222;-56
2021/10/21 07:19:23;;;;;;;1.33;0.50;;;9.60;1.00;;;;;;4992061;28;20234;-57
2021/10/21 07:21:51;;;;;;;0.77;0.60;;;9.50;99.90;;;;;;4992443;28;20237;-60
2021/10/21 07:24:17;;;;;;;2.13;0.60;;;9.50;1.00;;;;;;4992060;28;20203;-64
2021/10/21 07:26:44;;;;;;;2.37;0.50;;;9.40;55.30;;;;;;4991507;28;20222;-66
2021/10/21 07:29:11;;;;;;;1.77;0.67;;;9.40;1.00;;;;;;4991994;28;20687;-65
2021/10/21 07:31:38;;;;;;;1.70;0.87;;;9.40;1.00;;;;;;4994023;28;20236;-50
2021/10/21 07:34:04;;;;;;;3.07;1.20;;;9.40;99.90;;;;;;4996227;28;20965;-60
2021/10/21 07:36:31;;;;;;;3.20;1.00;;;9.40;99.90;;;;;;4995196;28;20210;-62
2021/10/21 07:38:59;;;;;;;4.97;1.40;;;9.40;99.90;;;;;;4995588;28;20210;-62
2021/10/21 07:41:27;;;;;;;3.27;1.50;;;9.40;99.90;;;;;;4995936;28;20911;-64
2021/10/21 07:43:54;;;;;;;5.10;1.60;;;9.40;99.90;;;;;;4995906;28;20205;-66
2021/10/21 07:46:21;;;;;;;3.10;1.40;;;9.50;99.90;;;;;;4995654;28;20580;-65
2021/10/21 07:48:48;;;;;;;4.33;1.50;;;9.50;99.90;;;;;;4995433;28;20254;-63
2021/10/21 07:51:15;;;;;;;4.70;2.00;;;9.50;1.00;;;;;;4995487;28;20286;-61
2021/10/21 07:53:42;;;;;;;4.03;2.00;;;9.40;1.00;;;;;;4995649;28;20324;-61
2021/10/21 07:56:10;;;;;;;4.13;1.60;;;9.50;1.00;;;;;;4995257;28;20211;-63
2021/10/21 07:58:36;;;;;;;6.37;1.63;;;9.50;1.00;;;;;;4995290;28;20592;-62
2021/10/21 08:01:03;;;;;;;3.53;1.10;;;9.60;1.00;;;;;;4995156;28;20765;-65
2021/10/21 08:03:30;;;;;;;7.00;1.63;;;9.60;1.00;;;;;;4995648;28;20207;-67
2021/10/21 08:05:57;;;;;;;5.07;1.53;;;9.70;1.00;;;;;;4994909;28;20276;-64
2021/10/21 08:08:24;;;;;;;5.77;1.20;;;9.60;99.90;;;;;;4994769;28;20258;-63
2021/10/21 08:10:51;;;;;;;7.73;1.57;;;9.70;99.90;;;;;;4994873;28;20322;-65
2021/10/21 08:13:19;;;;;;;3.17;1.70;;;9.70;99.90;;;;;;4994981;28;20230;-65
2021/10/21 08:15:45;;;;;;;5.17;1.70;;;9.70;99.90;;;;;;4994724;28;20213;-65
2021/10/21 08:18:13;;;;;;;4.53;2.03;;;9.70;99.90;;;;;;4994552;28;20215;-68
2021/10/21 08:20:42;;;;;;;6.40;2.40;;;9.70;99.90;;;;;;4994778;28;20232;-65
2021/10/21 08:23:09;;;;;;;10.27;2.50;;;9.70;99.90;;;;;;4994720;28;20218;-64
2021/10/21 08:25:35;;;;;;;9.17;2.63;;;9.70;99.90;;;;;;4994504;28;20217;-64
2021/10/21 08:28:02;;;;;;;11.13;2.90;;;9.70;99.90;;;;;;4994576;28;20242;-64
2021/10/21 08:30:33;;;;;;;7.10;2.43;;;9.70;85.40;;;;;;4994583;28;20235;-63
2021/10/21 08:33:00;;;;;;;7.17;2.40;;;9.70;99.90;;;;;;4994502;28;20258;-63
2021/10/21 08:35:28;;;;;;;11.63;2.50;;;9.70;99.90;;;;;;4993096;28;20203;-63
2021/10/21 08:37:55;;;;;;;6.77;2.30;;;9.70;99.90;;;;;;4994393;28;20249;-63
2021/10/21 08:40:22;;;;;;;14.30;2.43;;;9.70;99.90;;;;;;4994331;28;20313;-62
2021/10/21 08:42:49;;;;;;;5.97;2.03;;;9.70;99.90;;;;;;5001959;28;20245;-61
2021/10/21 08:45:15;;;;;;;8.80;2.00;;;9.70;99.90;;;;;;5013637;28;20215;-60
2021/10/21 08:47:47;;;;;;;12.63;2.50;;;9.70;1.00;;;;;;5013560;28;20236;-64
2021/10/21 08:50:15;;;;;;;9.27;2.07;;;9.70;11.60;;;;;;5013912;28;20237;-66
2021/10/21 08:52:43;;;;;;;8.77;1.70;;;9.80;99.90;;;;;;5013972;28;20632;-64
2021/10/21 08:55:10;;;;;;;8.43;1.97;;;9.70;1.00;;;;;;5013491;28;20265;-65
2021/10/21 08:57:37;;;;;;;7.17;1.60;;;9.70;99.90;;;;;;4997758;28;20297;-64
2021/10/21 09:00:06;;;;;;;6.27;1.83;;;9.80;1.00;;;;;;4993909;28;20223;-64
2021/10/21 09:02:38;;;;;;;11.47;2.60;;;9.80;69.80;;;;;;4994083;28;20207;-62
2021/10/21 09:05:12;;;;;;;10.93;2.50;;;9.80;99.90;;;;;;4993797;28;20736;-64
2021/10/21 09:07:58;;;;;;;6.40;2.83;;;9.90;1.00;;;;;;4993803;28;20254;-64
2021/10/21 09:10:25;;;;;;;8.50;1.93;;;10.00;99.90;;;;;;4993976;28;20243;-67
2021/10/21 09:12:53;;;;;;;9.33;2.47;;;10.20;99.90;;;;;;4994094;28;20222;-65
2021/10/21 09:15:21;;;;;;;6.67;1.47;;;10.30;99.30;;;;;;4993105;28;20231;-67
2021/10/21 09:17:48;;;;;;;12.73;2.40;;;10.40;1.00;;;;;;4993687;28;20215;-66
2021/10/21 09:20:37;;;;;;;8.63;2.30;;;10.50;99.90;;;;;;4993784;28;20234;-64
2021/10/21 09:23:06;;;;;;;8.20;2.10;;;10.40;1.00;;;;;;4993984;28;20211;-63
2021/10/21 09:25:34;;;;;;;8.17;2.20;;;10.50;1.00;;;;;;4993038;28;20692;-63
2021/10/21 09:28:02;;;;;;;12.10;2.40;;;10.60;15.20;;;;;;4993512;28;20259;-63
2021/10/21 09:30:31;;;;;;;7.47;2.20;;;10.60;99.90;;;;;;4993415;28;20261;-64
2021/10/21 09:33:04;;;;;;;4.33;1.90;;;10.80;99.90;;;;;;4993358;28;20221;-62
2021/10/21 09:35:35;;;;;;;13.67;2.63;;;10.80;99.90;;;;;;4993131;28;20231;-65
2021/10/21 09:38:02;;;;;;;8.97;1.87;;;10.90;99.90;;;;;;4992802;28;20211;-66
2021/10/21 09:40:32;;;;;;;8.07;2.10;;;11.00;99.90;;;;;;4993582;28;20611;-65
2021/10/21 09:43:00;;;;;;;7.17;2.00;;;11.10;99.90;;;;;;4993440;28;20203;-62
2021/10/21 09:45:29;;;;;;;8.97;1.97;;;11.20;99.90;;;;;;4992713;28;20208;-62
2021/10/21 09:47:57;;;;;;;11.80;2.70;;;11.30;99.90;;;;;;4993088;28;20583;-64
2021/10/21 09:50:27;;;;;;;9.50;2.17;;;11.30;99.90;;;;;;4992796;28;20703;-64
2021/10/21 09:53:13;;;;;;;8.03;2.20;;;11.40;99.90;;;;;;4992851;28;20683;-64
2021/10/21 09:55:43;;;;;;;7.40;2.00;;;11.20;30.30;;;;;;4992452;28;20239;-58
2021/10/21 09:58:11;;;;;;;7.47;2.03;;;11.20;43.20;;;;;;4992948;28;20684;-61
2021/10/21 10:00:39;;;;;;;5.47;2.30;;;11.20;49.80;;;;;;4993451;28;20271;-62
2021/10/21 10:03:13;;;;;;;8.20;2.13;;;11.10;47.80;;;;;;4993118;28;20218;-62
2021/10/21 10:05:41;;;;;;;13.27;2.70;;;11.00;47.70;;;;;;4992622;28;20353;-62
2021/10/21 10:08:09;;;;;;;6.93;2.73;;;10.90;92.00;;;;;;4992791;28;20218;-66
2021/10/21 10:10:40;;;;;;;8.53;2.83;;;10.90;99.90;;;;;;4992750;28;20647;-64
2021/10/21 10:13:07;;;;;;;9.23;2.60;;;11.00;95.00;;;;;;4992800;28;20572;-62
2021/10/21 10:15:35;;;;;;;11.20;2.17;;;11.00;67.20;;;;;;4991977;28;20306;-61
2021/10/21 10:18:02;;;;;;;7.80;2.70;;;11.00;39.90;;;;;;4992723;28;20299;-62
2021/10/21 10:20:30;;;;;;;7.30;2.37;;;11.10;45.80;;;;;;4992716;28;20236;-60
2021/10/21 10:22:57;;;;;;;6.83;1.80;;;11.10;33.90;;;;;;4992727;28;20243;-61
2021/10/21 10:25:25;;;;;;;7.53;2.33;;;11.00;4.70;;;;;;4992650;28;20254;-62
2021/10/21 10:27:55;;;;;;;5.97;2.10;;;11.00;1.00;;;;;;4992104;28;20729;-63
2021/10/21 10:30:43;;;;;;;4.83;1.93;;;10.90;1.00;;;;;;4992422;28;20234;-61
2021/10/21 10:33:10;;;;;;;8.03;1.80;;;10.90;11.10;;;;;;4992751;28;20691;-61
2021/10/21 10:35:39;;;;;;;6.47;2.00;;;10.90;7.50;;;;;;4991979;28;20254;-62
2021/10/21 10:38:07;;;;;;;5.70;1.67;;;10.80;10.70;;;;;;4992313;28;20235;-60
2021/10/21 10:40:37;;;;;;;9.27;1.90;;;10.70;53.00;;;;;;4992201;28;20231;-59
2021/10/21 10:43:06;;;;;;;4.80;1.97;;;10.70;99.90;;;;;;4992525;28;20212;-56
2021/10/21 10:45:48;;;;;;;6.50;1.43;;;10.60;84.60;;;;;;4991751;28;20242;-62
2021/10/21 10:48:16;;;;;;;3.30;1.30;;;10.60;99.90;;;;;;4992152;28;20219;-62
2021/10/21 10:50:56;;;;;;;7.40;2.10;;;10.60;99.90;;;;;;4992339;28;20231;-63
2021/10/21 10:53:42;;;;;;;4.60;1.40;;;10.50;62.10;;;;;;4992255;28;20210;-63
2021/10/21 10:56:09;;;;;;;4.33;1.40;;;10.60;38.70;;;;;;4991932;28;20262;-62
2021/10/21 10:58:37;;;;;;;7.47;1.40;;;10.50;40.40;;;;;;4991993;28;20214;-66
2021/10/21 11:01:04;;;;;;;4.00;1.30;;;10.50;41.50;;;;;;4992008;28;20235;-62
2021/10/21 11:03:36;;;;;;;7.30;1.60;;;10.40;4.90;;;;;;4992136;28;20215;-62
2021/10/21 11:06:03;;;;;;;7.13;1.70;;;10.40;32.30;;;;;;4997098;28;20203;-62
2021/10/21 11:08:54;;;;;;;8.97;1.50;;;10.40;93.50;;;;;;4998583;28;20209;-62
2021/10/21 11:11:45;;;;;;;5.20;1.23;;;10.40;99.90;;;;;;4998489;28;20253;-61
2021/10/21 11:14:14;;;;;;;8.30;1.73;;;10.40;79.80;;;;;;4998336;28;20231;-61
2021/10/21 11:16:46;;;;;;;11.53;2.40;;;10.30;99.90;;;;;;4998183;28;20249;-59
2021/10/21 11:19:34;;;;;;;9.87;1.73;;;10.40;99.90;;;;;;4998407;28;20218;-60
2021/10/21 11:22:00;;;;;;;5.87;2.20;;;10.40;99.90;;;;;;4998123;28;20322;-61
2021/10/21 11:25:00;;;;;;;4.90;1.40;;;10.50;99.90;;;;;;4998324;28;20904;-61
2021/10/21 11:27:29;;;;;;;6.70;2.77;;;10.50;99.50;;;;;;4994724;28;20751;-61
2021/10/21 11:30:04;;;;;;;5.23;1.80;;;10.60;99.90;;;;;;4998059;28;20751;-61
2021/10/21 11:32:33;;;;;;;5.97;2.40;;;10.60;99.90;;;;;;4998189;28;20207;-61
2021/10/21 11:35:00;;;;;;;7.20;1.70;;;10.70;99.90;;;;;;4998106;28;20259;-61
2021/10/21 11:37:35;;;;;;;7.07;1.53;;;10.80;99.90;;;;;;4997768;28;20679;-59
2021/10/21 11:40:03;;;;;;;3.13;0.90;;;10.90;59.20;;;;;;4998212;28;20633;-61
2021/10/21 11:42:30;;;;;;;7.83;1.80;;;11.00;14.30;;;;;;4998231;28;20215;-60
2021/10/21 11:45:08;;;;;;;4.43;1.27;;;11.00;4.50;;;;;;4997731;28;20210;-59
2021/10/21 11:47:36;;;;;;;3.17;1.20;;;11.00;4.40;;;;;;4998200;28;20306;-63
2021/10/21 11:50:05;;;;;;;3.73;1.20;;;11.00;5.00;;;;;;4998147;28;20658;-63
2021/10/21 11:52:43;;;;;;;3.37;1.10;;;11.00;4.10;;;;;;4998050;28;20310;-62
2021/10/21 11:55:20;;;;;;;3.80;1.33;;;11.00;1.00;;;;;;4997916;28;20757;-63
2021/10/21 11:57:47;;;;;;;8.50;1.60;;;11.00;1.00;;;;;;4997875;28;20282;-62
2021/10/21 12:00:21;;;;;;;3.13;1.60;;;10.90;1.00;;;;;;4998119;28;20226;-62
2021/10/21 12:02:53;;;;;;;3.80;1.20;;;10.90;1.00;;;;;;4998047;28;20213;-64
2021/10/21 12:05:25;;;;;;;3.30;1.10;;;11.00;1.00;;;;;;4997727;28;20299;-63
2021/10/21 12:07:52;;;;;;;3.70;0.90;;;11.00;1.00;;;;;;4997740;28;20211;-63
2021/10/21 12:10:31;;;;;;;4.13;1.00;;;11.00;1.00;;;;;;4997854;28;20787;-60
2021/10/21 12:12:59;;;;;;;2.77;1.07;;;11.00;1.00;;;;;;4998191;28;20258;-61
2021/10/21 12:15:29;;;;;;;7.37;1.00;;;11.00;1.00;;;;;;4997474;28;20234;-60
2021/10/21 12:17:57;;;;;;;2.73;1.10;;;11.10;1.00;;;;;;4994387;28;20608;-58
2021/10/21 12:20:38;;;;;;;4.07;1.10;;;11.10;1.00;;;;;;4994347;28;20766;-59
2021/10/21 12:23:27;;;;;;;2.60;1.00;;;11.00;1.00;;;;;;4995032;28;20282;-61
2021/10/21 12:25:56;;;;;;;2.10;0.90;;;10.90;1.00;;;;;;4991519;28;20577;-61
2021/10/21 12:28:23;;;;;;;4.37;1.30;;;10.70;1.00;;;;;;4994538;28;20207;-58
2021/10/21 12:30:51;;;;;;;6.23;1.20;;;10.60;99.90;;;;;;4994434;28;20278;-63
2021/10/21 12:33:19;;;;;;;1.33;0.90;;;10.30;99.90;;;;;;4994997;28;20235;-66
2021/10/21 12:35:57;;;;;;;3.97;0.87;;;10.00;91.30;;;;;;4993953;28;20720;-65
2021/10/21 12:38:24;;;;;;;1.33;0.60;;;9.70;1.00;;;;;;4994493;28;20241;-66
2021/10/21 12:40:59;;;;;;;3.73;0.60;;;9.50;1.00;;;;;;4994379;28;20288;-68
2021/10/21 12:43:27;;;;;;;2.63;0.90;;;9.30;99.90;;;;;;4994226;28;20212;-69
2021/10/21 12:49:23;;;;;;;1.83;1.30;;;9.20;99.90;;;;;;4967772;28;20206;-71
2021/10/21 12:51:50;;;;;;;2.27;1.23;;;9.20;99.90;;;;;;4993968;28;20359;-66
2021/10/21 12:54:25;;;;;;;3.73;0.70;;;9.30;1.00;;;;;;4994187;28;20212;-66
2021/10/21 12:56:56;;;;;;;2.03;0.90;;;9.30;99.90;;;;;;4994125;28;20212;-66
2021/10/21 12:59:23;;;;;;;1.73;0.90;;;9.40;1.00;;;;;;4993974;28;20221;-70
2021/10/21 13:01:55;;;;;;;2.07;0.80;;;9.40;99.90;;;;;;4993814;28;20295;-68